Time;durP1;ratioP1;P1;durP2;ratioP2;P2;SDS_P1;SDS_P2;PMS_P1;PMS_P2;Temp;Humidity;BMP_temperature;BMP_pressure;BME280_temperature;BME280_humidity;BME280_pressure;Samples;Min_cycle;Max_cycle;Signal;HPM_P1;HPM_P2
2022/02/20 00:02:07;;;;;;;0.20;0.20;;;10.10;80.10;;;;;;5035050;28;20406;-49
2022/02/20 00:04:33;;;;;;;0.40;0.40;;;10.10;81.00;;;;;;5032700;28;20034;-49
2022/02/20 00:06:58;;;;;;;0.47;0.47;;;10.20;79.90;;;;;;5031159;28;20032;-49
2022/02/20 00:09:24;;;;;;;0.50;0.50;;;10.20;80.00;;;;;;5041026;28;20448;-49
2022/02/20 00:11:49;;;;;;;0.75;0.40;;;10.20;80.20;;;;;;5033780;28;20486;-49
2022/02/20 00:14:15;;;;;;;0.20;0.20;;;10.10;80.40;;;;;;5036250;28;20340;-49
2022/02/20 00:16:41;;;;;;;1.00;1.00;;;10.10;80.20;;;;;;5040196;28;20049;-49
2022/02/20 00:19:06;;;;;;;6.45;0.90;;;10.10;80.40;;;;;;5034653;28;20033;-49
2022/02/20 00:21:32;;;;;;;1.90;0.85;;;10.20;80.30;;;;;;5030514;28;20033;-49
2022/02/20 00:23:58;;;;;;;0.50;0.50;;;10.20;80.40;;;;;;5038515;28;20424;-49
2022/02/20 00:26:24;;;;;;;6.45;0.95;;;10.20;80.10;;;;;;5040770;28;20108;-49
2022/02/20 00:28:49;;;;;;;0.50;0.50;;;10.20;80.30;;;;;;5037143;28;20084;-49
2022/02/20 00:31:15;;;;;;;2.72;1.17;;;10.10;80.20;;;;;;5038301;28;20026;-49
2022/02/20 00:33:40;;;;;;;1.38;1.00;;;10.10;80.30;;;;;;5041200;28;20048;-49
2022/02/20 00:36:06;;;;;;;0.50;0.50;;;10.20;80.20;;;;;;5031220;28;20439;-49
2022/02/20 00:38:32;;;;;;;13.57;0.80;;;10.10;80.10;;;;;;5035959;28;20033;-49
2022/02/20 00:40:57;;;;;;;7.32;0.88;;;10.10;80.10;;;;;;5042432;28;20531;-49
2022/02/20 00:43:23;;;;;;;1.67;0.93;;;10.10;80.40;;;;;;5038616;28;20364;-49
2022/02/20 00:45:49;;;;;;;2.15;0.90;;;10.10;80.30;;;;;;5040421;28;20344;-49
2022/02/20 00:48:19;;;;;;;0.30;0.30;;;10.10;80.30;;;;;;5040087;28;20065;-49
2022/02/20 00:50:45;;;;;;;6.95;0.45;;;10.10;80.80;;;;;;5040881;28;20040;-49
2022/02/20 00:53:10;;;;;;;1.10;0.65;;;10.10;80.40;;;;;;5042957;28;20521;-49
2022/02/20 00:55:37;;;;;;;0.50;0.50;;;10.10;80.50;;;;;;5043241;28;20025;-49
2022/02/20 00:58:02;;;;;;;2.55;0.68;;;10.10;80.80;;;;;;5032420;28;20303;-49
2022/02/20 01:00:28;;;;;;;0.68;0.60;;;10.20;80.50;;;;;;5036075;28;20448;-49
2022/02/20 01:02:54;;;;;;;0.40;0.40;;;10.20;80.50;;;;;;5040885;28;20038;-49
2022/02/20 01:05:20;;;;;;;3.05;0.63;;;10.10;80.00;;;;;;5039669;28;20022;-50
2022/02/20 01:07:46;;;;;;;0.47;0.40;;;10.10;80.20;;;;;;5032857;28;20115;-49
2022/02/20 01:10:14;;;;;;;1.17;0.57;;;10.10;80.30;;;;;;5032600;28;20033;-49
2022/02/20 01:12:40;;;;;;;1.10;0.30;;;10.10;80.20;;;;;;5037214;28;20036;-50
2022/02/20 01:15:06;;;;;;;0.60;0.60;;;10.10;80.60;;;;;;5045025;28;20104;-49
2022/02/20 01:17:32;;;;;;;2.92;1.00;;;10.10;80.40;;;;;;5035554;28;20486;-49
2022/02/20 01:19:58;;;;;;;0.50;0.40;;;10.10;80.90;;;;;;5039732;28;20053;-49
2022/02/20 01:22:24;;;;;;;0.30;0.30;;;10.10;80.20;;;;;;5034584;28;20466;-49
2022/02/20 01:24:50;;;;;;;2.55;0.63;;;10.20;80.20;;;;;;5044373;28;20032;-49
2022/02/20 01:27:16;;;;;;;4.40;0.82;;;10.20;80.50;;;;;;5042792;28;20029;-49
2022/02/20 01:29:42;;;;;;;2.13;0.77;;;10.10;80.40;;;;;;5040168;28;20025;-49
2022/02/20 01:32:07;;;;;;;3.97;1.10;;;10.10;80.40;;;;;;5038030;28;20040;-49
2022/02/20 01:34:33;;;;;;;6.65;0.98;;;10.20;80.20;;;;;;5044069;28;20332;-49
2022/02/20 01:36:58;;;;;;;0.20;0.20;;;10.20;80.50;;;;;;5036889;28;20036;-49
2022/02/20 01:39:24;;;;;;;4.50;0.68;;;10.20;80.50;;;;;;5038073;28;20041;-49
2022/02/20 01:41:51;;;;;;;0.68;0.63;;;10.10;80.40;;;;;;5039289;28;20117;-49
2022/02/20 01:44:17;;;;;;;0.55;0.55;;;10.10;80.60;;;;;;5042368;28;20055;-49
2022/02/20 01:46:47;;;;;;;5.10;0.93;;;10.10;80.60;;;;;;5040581;28;20421;-49
2022/02/20 01:49:14;;;;;;;3.83;1.20;;;10.20;81.10;;;;;;5036478;28;20089;-49
2022/02/20 01:51:40;;;;;;;0.30;0.30;;;10.10;81.40;;;;;;5034903;28;20448;-49
2022/02/20 01:54:06;;;;;;;0.30;0.30;;;10.10;80.90;;;;;;5038311;28;20060;-49
2022/02/20 01:56:31;;;;;;;3.35;1.20;;;10.10;80.90;;;;;;5043887;28;20112;-49
2022/02/20 01:58:58;;;;;;;3.85;0.93;;;10.10;80.20;;;;;;5042315;28;20419;-49
2022/02/20 02:01:23;;;;;;;0.20;0.20;;;10.10;80.80;;;;;;5034412;28;20043;-49
2022/02/20 02:03:49;;;;;;;0.80;0.40;;;10.10;80.80;;;;;;5035967;28;20116;-49
2022/02/20 02:06:14;;;;;;;3.17;0.80;;;10.10;80.70;;;;;;5038532;28;20477;-49
2022/02/20 02:08:40;;;;;;;3.88;1.17;;;10.10;80.60;;;;;;5036606;28;20036;-49
2022/02/20 02:11:08;;;;;;;0.40;0.40;;;10.10;81.00;;;;;;5035986;28;20362;-49
2022/02/20 02:13:33;;;;;;;2.92;0.40;;;10.10;80.80;;;;;;5036768;28;20074;-49
2022/02/20 02:15:59;;;;;;;2.17;0.75;;;10.10;81.00;;;;;;5039658;28;20584;-49
2022/02/20 02:18:24;;;;;;;0.30;0.30;;;10.10;80.80;;;;;;5038327;28;20059;-49
2022/02/20 02:20:50;;;;;;;2.00;0.65;;;10.20;81.30;;;;;;5044090;28;20338;-49
2022/02/20 02:23:17;;;;;;;2.25;0.45;;;10.10;80.90;;;;;;5037142;28;20040;-49
2022/02/20 02:25:44;;;;;;;2.88;1.08;;;10.10;81.00;;;;;;5031566;28;20347;-49
2022/02/20 02:28:10;;;;;;;0.55;0.55;;;10.10;80.60;;;;;;5037011;28;20096;-49
2022/02/20 02:30:35;;;;;;;1.08;0.40;;;10.20;80.90;;;;;;5035486;28;20029;-49
2022/02/20 02:33:01;;;;;;;1.70;0.25;;;10.10;81.20;;;;;;5038875;28;20371;-49
2022/02/20 02:35:27;;;;;;;0.30;0.30;;;10.10;80.90;;;;;;5039127;28;20115;-49
2022/02/20 02:37:53;;;;;;;0.68;0.57;;;10.10;81.00;;;;;;5027737;28;20112;-49
2022/02/20 02:40:22;;;;;;;6.30;0.43;;;10.10;80.80;;;;;;5041526;28;20467;-49
2022/02/20 02:42:49;;;;;;;0.30;0.30;;;10.10;81.30;;;;;;5036992;28;20447;-49
2022/02/20 02:45:15;;;;;;;2.83;0.98;;;10.10;80.90;;;;;;5035547;28;20413;-49
2022/02/20 02:47:45;;;;;;;0.40;0.30;;;10.10;81.00;;;;;;5042665;28;20481;-49
2022/02/20 02:50:11;;;;;;;2.50;0.95;;;10.10;81.10;;;;;;5040106;28;20375;-49
2022/02/20 02:52:36;;;;;;;3.90;0.40;;;10.20;81.10;;;;;;5038943;28;20135;-49
2022/02/20 02:55:02;;;;;;;1.40;0.55;;;10.10;81.00;;;;;;5035745;28;20104;-49
2022/02/20 02:57:28;;;;;;;1.23;0.55;;;10.10;80.90;;;;;;5038125;28;20037;-49
2022/02/20 02:59:54;;;;;;;0.88;0.70;;;10.10;81.10;;;;;;5039283;28;20032;-49
2022/02/20 03:02:19;;;;;;;1.75;0.47;;;10.10;81.10;;;;;;5042419;28;20373;-49
2022/02/20 03:04:45;;;;;;;2.33;0.82;;;10.10;81.00;;;;;;5031549;28;20090;-49
2022/02/20 03:07:13;;;;;;;0.50;0.50;;;10.10;81.20;;;;;;5033011;28;20384;-49
2022/02/20 03:09:40;;;;;;;0.65;0.65;;;10.10;81.10;;;;;;5041956;28;20025;-49
2022/02/20 03:12:07;;;;;;;0.63;0.28;;;10.10;81.10;;;;;;5039299;28;20466;-49
2022/02/20 03:14:32;;;;;;;1.50;1.08;;;10.10;81.50;;;;;;5038776;28;20143;-49
2022/02/20 03:16:58;;;;;;;4.30;0.98;;;10.10;81.20;;;;;;5035116;28;20474;-49
2022/02/20 03:19:23;;;;;;;0.30;0.30;;;10.10;81.50;;;;;;5041062;28;20029;-49
2022/02/20 03:21:49;;;;;;;0.43;0.40;;;10.10;81.20;;;;;;5034103;28;20048;-49
2022/02/20 03:24:14;;;;;;;0.52;0.43;;;10.10;81.50;;;;;;5034585;28;20037;-49
2022/02/20 03:26:40;;;;;;;3.30;0.88;;;10.10;81.30;;;;;;5039880;28;20056;-49
2022/02/20 03:29:06;;;;;;;3.92;0.82;;;10.10;81.10;;;;;;5038736;28;20442;-49
2022/02/20 03:31:33;;;;;;;2.17;0.50;;;10.10;81.50;;;;;;5037086;28;20029;-49
2022/02/20 03:33:58;;;;;;;1.85;0.75;;;10.10;81.70;;;;;;5036678;28;20504;-49
2022/02/20 03:36:24;;;;;;;0.73;0.57;;;10.10;81.60;;;;;;5039076;28;20030;-49
2022/02/20 03:38:50;;;;;;;2.28;0.73;;;10.10;81.80;;;;;;5034523;28;20029;-49
2022/02/20 03:41:16;;;;;;;0.63;0.57;;;10.10;81.40;;;;;;5036153;28;20018;-49
2022/02/20 03:43:41;;;;;;;0.55;0.40;;;10.10;81.90;;;;;;5036803;28;20028;-49
2022/02/20 03:46:07;;;;;;;0.20;0.20;;;10.10;81.60;;;;;;5040061;28;20032;-49
2022/02/20 03:48:32;;;;;;;2.15;0.90;;;10.10;81.50;;;;;;5033800;28;20037;-49
2022/02/20 03:50:58;;;;;;;0.47;0.47;;;10.10;81.90;;;;;;5041143;28;20267;-49
2022/02/20 03:53:23;;;;;;;0.40;0.40;;;10.10;82.20;;;;;;5028909;28;20319;-49
2022/02/20 03:55:49;;;;;;;0.80;0.45;;;10.10;81.80;;;;;;5023833;28;20029;-49
2022/02/20 03:58:15;;;;;;;0.40;0.40;;;10.10;81.80;;;;;;5032808;28;20070;-49
2022/02/20 04:00:40;;;;;;;0.95;0.82;;;10.10;81.80;;;;;;5038506;28;20032;-48
2022/02/20 04:03:06;;;;;;;0.40;0.40;;;10.10;82.00;;;;;;5037849;28;20068;-49
2022/02/20 04:05:32;;;;;;;0.70;0.40;;;10.10;82.00;;;;;;5034261;28;20035;-49
2022/02/20 04:07:57;;;;;;;1.55;0.63;;;10.10;82.40;;;;;;5034924;28;20443;-49
2022/02/20 04:10:23;;;;;;;1.35;0.57;;;10.10;82.40;;;;;;5037533;28;20032;-49
2022/02/20 04:12:49;;;;;;;5.93;0.95;;;10.10;82.30;;;;;;5036508;28;20482;-49
2022/02/20 04:15:16;;;;;;;1.67;0.80;;;10.10;82.00;;;;;;5036119;28;20045;-49
2022/02/20 04:17:44;;;;;;;6.13;1.02;;;10.10;82.10;;;;;;5034774;28;20029;-49
2022/02/20 04:20:12;;;;;;;2.42;0.77;;;10.10;82.20;;;;;;5038090;28;20103;-49
2022/02/20 04:22:38;;;;;;;4.28;0.85;;;10.10;82.20;;;;;;5037163;28;20059;-49
2022/02/20 04:25:04;;;;;;;0.30;0.30;;;10.10;82.30;;;;;;5036826;28;20020;-49
2022/02/20 04:27:30;;;;;;;6.88;0.93;;;10.10;82.50;;;;;;5033118;28;20030;-49
2022/02/20 04:29:55;;;;;;;1.55;1.05;;;10.10;82.60;;;;;;5040414;28;20051;-49
2022/02/20 04:32:21;;;;;;;5.95;0.63;;;10.10;82.40;;;;;;5033807;28;20041;-49
2022/02/20 04:34:46;;;;;;;0.50;0.50;;;10.10;82.50;;;;;;5036306;28;20019;-49
2022/02/20 04:37:12;;;;;;;1.95;1.02;;;10.10;82.30;;;;;;5040761;28;20026;-49
2022/02/20 04:39:37;;;;;;;4.00;0.60;;;10.10;82.60;;;;;;5036159;28;20034;-49
2022/02/20 04:42:03;;;;;;;0.30;0.30;;;10.20;82.50;;;;;;5034229;28;20017;-49
2022/02/20 04:44:29;;;;;;;0.75;0.40;;;10.10;82.70;;;;;;5035712;28;20033;-49
2022/02/20 04:46:55;;;;;;;0.20;0.20;;;10.10;82.40;;;;;;5041481;28;20120;-49
2022/02/20 04:49:20;;;;;;;0.80;0.57;;;10.10;82.50;;;;;;5039201;28;20034;-49
2022/02/20 04:51:46;;;;;;;4.57;0.70;;;10.10;82.60;;;;;;5040985;28;20025;-49
2022/02/20 04:54:12;;;;;;;0.63;0.50;;;10.10;82.40;;;;;;5024460;28;20076;-49
2022/02/20 04:56:37;;;;;;;0.75;0.75;;;10.10;82.80;;;;;;5024794;28;20048;-49
2022/02/20 04:59:03;;;;;;;6.32;0.60;;;10.10;82.90;;;;;;5038650;28;20099;-49
2022/02/20 05:01:28;;;;;;;1.55;0.90;;;10.10;82.60;;;;;;5035222;28;20029;-49
2022/02/20 05:03:54;;;;;;;6.07;0.75;;;10.10;82.80;;;;;;5034261;28;20408;-49
2022/02/20 05:06:19;;;;;;;1.77;0.60;;;10.10;82.60;;;;;;5037135;28;20037;-49
2022/02/20 05:08:45;;;;;;;0.77;0.60;;;10.10;82.90;;;;;;5033640;28;20166;-49
2022/02/20 05:11:11;;;;;;;0.93;0.70;;;10.10;82.90;;;;;;5040296;28;20433;-49
2022/02/20 05:13:37;;;;;;;4.28;0.52;;;10.10;83.10;;;;;;5031822;28;20045;-49
2022/02/20 05:16:03;;;;;;;0.30;0.30;;;10.10;82.90;;;;;;5035541;28;20032;-49
2022/02/20 05:18:29;;;;;;;0.90;0.47;;;10.10;82.70;;;;;;5038855;28;20033;-49
2022/02/20 05:20:54;;;;;;;2.72;1.20;;;10.20;83.10;;;;;;5040171;28;20025;-49
2022/02/20 05:23:24;;;;;;;0.75;0.75;;;10.10;82.90;;;;;;5035920;28;20738;-49
2022/02/20 05:25:51;;;;;;;1.70;0.60;;;10.10;83.10;;;;;;5032639;28;20029;-49
2022/02/20 05:28:17;;;;;;;4.53;0.60;;;10.10;83.10;;;;;;5044895;28;20025;-49
2022/02/20 05:30:44;;;;;;;1.30;0.50;;;10.10;83.40;;;;;;5041579;28;20406;-49
2022/02/20 05:33:10;;;;;;;4.13;0.70;;;10.10;83.60;;;;;;5030757;28;20045;-49
2022/02/20 05:35:36;;;;;;;0.40;0.40;;;10.10;83.70;;;;;;5036743;28;20347;-48
2022/02/20 05:38:03;;;;;;;1.95;0.60;;;10.10;83.30;;;;;;5042366;28;20100;-49
2022/02/20 05:40:29;;;;;;;2.22;1.17;;;10.20;83.20;;;;;;5033932;28;20037;-49
2022/02/20 05:42:57;;;;;;;5.80;1.30;;;10.20;83.50;;;;;;5037774;28;20035;-49
2022/02/20 05:45:24;;;;;;;0.50;0.50;;;10.10;83.30;;;;;;5031523;28;20029;-49
2022/02/20 05:47:49;;;;;;;0.55;0.32;;;10.20;83.40;;;;;;5040825;28;20386;-49
2022/02/20 05:50:15;;;;;;;0.35;0.35;;;10.20;83.30;;;;;;5043826;28;20033;-49
2022/02/20 05:52:41;;;;;;;2.20;0.50;;;10.20;83.60;;;;;;5039723;28;20041;-49
2022/02/20 05:55:08;;;;;;;0.60;0.60;;;10.20;83.40;;;;;;5032178;28;20049;-49
2022/02/20 05:57:48;;;;;;;3.67;1.45;;;10.20;83.70;;;;;;5038473;28;20061;-49
2022/02/20 06:00:15;;;;;;;;;;;10.20;83.80;;;;;;5036449;28;20033;-49
2022/02/20 06:02:41;;;;;;;2.13;0.57;;;10.20;83.50;;;;;;5043800;28;20297;-50
2022/02/20 06:05:08;;;;;;;0.30;0.30;;;10.20;83.50;;;;;;5039585;28;20059;-49
2022/02/20 06:07:33;;;;;;;4.55;0.93;;;10.10;84.00;;;;;;5037479;28;20349;-50
2022/02/20 06:10:00;;;;;;;2.20;0.63;;;10.10;83.50;;;;;;5034990;28;20033;-49
2022/02/20 06:12:26;;;;;;;3.45;0.82;;;10.10;83.70;;;;;;5033417;28;20494;-50
2022/02/20 06:14:52;;;;;;;0.20;0.20;;;10.10;83.50;;;;;;5030556;28;20483;-49
2022/02/20 06:17:17;;;;;;;1.92;0.65;;;10.10;83.90;;;;;;5039728;28;20044;-60
2022/02/20 06:19:43;;;;;;;4.00;1.35;;;10.10;83.10;;;;;;5034287;28;20393;-56
2022/02/20 06:22:08;;;;;;;3.10;0.70;;;10.10;83.40;;;;;;5043783;28;20052;-56
2022/02/20 06:24:34;;;;;;;6.47;0.85;;;10.10;83.30;;;;;;5031471;28;20041;-57
2022/02/20 06:26:59;;;;;;;1.27;0.73;;;10.10;83.70;;;;;;5039205;28;20056;-56
2022/02/20 06:29:26;;;;;;;0.28;0.28;;;10.10;83.10;;;;;;5039426;28;20026;-57
2022/02/20 06:31:51;;;;;;;2.08;0.73;;;10.10;83.60;;;;;;5037177;28;20030;-56
2022/02/20 06:34:17;;;;;;;1.33;0.50;;;10.10;83.30;;;;;;5026518;28;20025;-56
2022/02/20 06:36:43;;;;;;;2.05;0.65;;;10.10;83.60;;;;;;5028348;28;20022;-56
2022/02/20 06:39:10;;;;;;;2.20;0.90;;;10.10;83.60;;;;;;5030453;28;20045;-56
2022/02/20 06:41:36;;;;;;;1.15;0.70;;;10.10;84.00;;;;;;5028557;28;20068;-57
2022/02/20 06:44:02;;;;;;;0.50;0.50;;;10.10;83.60;;;;;;5030883;28;20022;-56
2022/02/20 06:46:28;;;;;;;8.40;0.90;;;10.10;83.50;;;;;;5026832;28;20395;-56
2022/02/20 06:48:54;;;;;;;0.40;0.40;;;10.10;83.50;;;;;;5038277;28;20238;-56
2022/02/20 06:51:19;;;;;;;5.38;0.88;;;10.10;83.80;;;;;;5032508;28;20056;-57
2022/02/20 06:53:45;;;;;;;0.98;0.60;;;10.10;84.10;;;;;;5038713;28;20041;-56
2022/02/20 06:56:10;;;;;;;1.15;1.00;;;10.10;83.90;;;;;;5030713;28;20085;-56
2022/02/20 06:58:36;;;;;;;3.38;1.23;;;10.20;83.90;;;;;;5038045;28;20026;-56
2022/02/20 07:01:02;;;;;;;1.85;0.60;;;10.10;83.70;;;;;;5036395;28;20029;-56
2022/02/20 07:03:27;;;;;;;0.30;0.30;;;10.10;84.00;;;;;;5036145;28;20053;-56
2022/02/20 07:05:53;;;;;;;6.60;0.75;;;10.10;83.80;;;;;;5029264;28;20025;-56
2022/02/20 07:08:19;;;;;;;1.83;0.93;;;10.20;84.10;;;;;;5024220;28;20171;-56
2022/02/20 07:10:44;;;;;;;3.47;0.80;;;10.20;84.00;;;;;;5023644;28;20490;-56
2022/02/20 07:13:10;;;;;;;2.67;0.75;;;10.20;84.20;;;;;;5028397;28;20404;-56
2022/02/20 07:15:35;;;;;;;1.23;0.60;;;10.20;84.10;;;;;;5026415;28;20034;-56
2022/02/20 07:18:01;;;;;;;2.45;0.60;;;10.20;84.90;;;;;;5027664;28;20022;-56
2022/02/20 07:20:27;;;;;;;0.80;0.55;;;10.20;84.20;;;;;;5034263;28;20467;-56
2022/02/20 07:22:52;;;;;;;1.60;0.85;;;10.20;84.20;;;;;;5032754;28;20454;-56
2022/02/20 07:25:19;;;;;;;0.60;0.60;;;10.20;84.50;;;;;;5033839;28;20022;-56
2022/02/20 07:27:53;;;;;;;1.45;0.57;;;10.20;84.50;;;;;;5041546;28;20120;-56
2022/02/20 07:30:19;;;;;;;7.75;0.60;;;10.20;84.40;;;;;;5042232;28;20078;-56
2022/02/20 07:32:45;;;;;;;1.33;0.52;;;10.20;84.50;;;;;;5036948;28;20411;-57
2022/02/20 07:35:11;;;;;;;0.40;0.40;;;10.30;84.40;;;;;;5037210;28;20443;-56
2022/02/20 07:37:37;;;;;;;5.40;0.80;;;10.20;84.40;;;;;;5029582;28;20505;-56
2022/02/20 07:40:03;;;;;;;0.57;0.57;;;10.20;84.50;;;;;;5035834;28;20462;-56
2022/02/20 07:42:29;;;;;;;1.85;0.70;;;10.20;84.60;;;;;;5034176;28;20037;-56
2022/02/20 07:44:54;;;;;;;0.30;0.30;;;10.20;84.60;;;;;;5034361;28;20022;-56
2022/02/20 07:47:20;;;;;;;0.30;0.30;;;10.30;85.60;;;;;;5031737;28;20140;-56
2022/02/20 07:49:46;;;;;;;1.17;0.80;;;10.30;84.70;;;;;;5033052;28;20022;-56
2022/02/20 07:52:12;;;;;;;1.05;0.68;;;10.20;84.70;;;;;;5022826;28;20048;-56
2022/02/20 07:54:37;;;;;;;0.20;0.20;;;10.20;85.00;;;;;;5023591;28;20706;-56
2022/02/20 07:57:04;;;;;;;0.63;0.50;;;10.20;85.00;;;;;;5027815;28;20021;-56
2022/02/20 07:59:30;;;;;;;1.77;0.75;;;10.30;85.20;;;;;;5030491;28;20028;-60
2022/02/20 08:01:55;;;;;;;0.47;0.47;;;10.20;84.80;;;;;;5025976;28;20033;-54
2022/02/20 08:04:21;;;;;;;1.23;0.77;;;10.00;84.70;;;;;;5020091;28;20401;-54
2022/02/20 08:06:46;;;;;;;0.50;0.50;;;10.10;85.30;;;;;;5029687;28;20132;-54
2022/02/20 08:09:12;;;;;;;1.42;0.50;;;10.10;84.40;;;;;;5026124;28;20092;-54
2022/02/20 08:11:38;;;;;;;0.93;0.55;;;10.20;84.20;;;;;;5028661;28;20028;-61
2022/02/20 08:14:05;;;;;;;1.88;0.40;;;10.20;83.80;;;;;;5021723;28;20053;-60
2022/02/20 08:16:31;;;;;;;2.25;0.60;;;10.00;82.90;;;;;;5027869;28;20026;-60
2022/02/20 08:18:57;;;;;;;1.95;1.08;;;9.90;83.10;;;;;;5031972;28;20045;-60
2022/02/20 08:21:22;;;;;;;3.72;0.43;;;9.70;82.70;;;;;;5023715;28;20026;-60
2022/02/20 08:23:50;;;;;;;0.95;0.50;;;9.50;82.50;;;;;;5038603;28;20021;-60
2022/02/20 08:26:16;;;;;;;5.15;0.80;;;9.40;83.60;;;;;;5013702;28;20055;-59
2022/02/20 08:28:41;;;;;;;1.13;0.50;;;9.40;82.90;;;;;;5030345;28;20123;-59
2022/02/20 08:31:09;;;;;;;0.60;0.60;;;9.40;83.20;;;;;;5026577;28;20609;-59
2022/02/20 08:33:35;;;;;;;0.30;0.30;;;9.40;82.50;;;;;;5025950;28;20029;-59
2022/02/20 08:36:01;;;;;;;0.47;0.47;;;9.40;82.60;;;;;;5022959;28;20022;-59
2022/02/20 08:38:27;;;;;;;0.47;0.47;;;9.40;82.60;;;;;;5022387;28;20033;-59
2022/02/20 08:40:54;;;;;;;1.48;0.80;;;9.40;82.50;;;;;;5017688;28;20144;-59
2022/02/20 08:43:20;;;;;;;0.63;0.60;;;9.40;82.70;;;;;;5026786;28;20486;-59
2022/02/20 08:45:48;;;;;;;0.45;0.40;;;9.40;82.30;;;;;;5021001;28;20025;-60
2022/02/20 08:48:14;;;;;;;1.08;1.08;;;9.30;82.20;;;;;;5046474;28;20413;-59
2022/02/20 08:50:41;;;;;;;0.40;0.40;;;9.30;82.50;;;;;;5026111;28;20036;-59
2022/02/20 08:53:08;;;;;;;2.95;0.70;;;9.30;83.40;;;;;;5035095;28;20032;-62
2022/02/20 08:55:34;;;;;;;0.43;0.43;;;9.40;82.50;;;;;;5029722;28;20040;-68
2022/02/20 08:57:59;;;;;;;0.20;0.20;;;9.30;82.80;;;;;;5017760;28;20018;-68
2022/02/20 09:00:25;;;;;;;2.17;0.73;;;9.40;82.80;;;;;;5029278;28;20014;-67
2022/02/20 09:02:51;;;;;;;2.13;0.50;;;9.50;82.60;;;;;;5030995;28;20125;-66
2022/02/20 09:05:17;;;;;;;0.20;0.20;;;9.40;82.80;;;;;;5019451;28;20076;-67
2022/02/20 09:07:42;;;;;;;0.30;0.30;;;9.40;83.10;;;;;;5021422;28;20037;-67
2022/02/20 09:10:09;;;;;;;4.28;0.50;;;9.40;82.80;;;;;;5029283;28;20041;-67
2022/02/20 09:12:36;;;;;;;0.95;0.57;;;9.30;83.20;;;;;;5023913;28;20111;-67
2022/02/20 09:15:03;;;;;;;0.20;0.20;;;9.30;83.10;;;;;;5031057;28;20498;-61
2022/02/20 09:17:28;;;;;;;0.30;0.30;;;9.30;83.10;;;;;;5028271;28;20025;-61
2022/02/20 09:19:54;;;;;;;0.45;0.40;;;9.10;84.40;;;;;;5027507;28;20100;-62
2022/02/20 09:22:20;;;;;;;0.35;0.35;;;9.10;83.90;;;;;;5031598;28;20059;-62
2022/02/20 09:24:45;;;;;;;0.73;0.50;;;9.10;84.20;;;;;;5035682;28;20028;-61
2022/02/20 09:27:11;;;;;;;0.47;0.30;;;9.10;84.10;;;;;;5030931;28;20109;-61
2022/02/20 09:29:37;;;;;;;0.25;0.25;;;9.10;84.40;;;;;;5020792;28;20080;-62
2022/02/20 09:32:03;;;;;;;0.77;0.40;;;9.10;84.40;;;;;;5037804;28;20048;-62
2022/02/20 09:34:29;;;;;;;1.23;0.30;;;9.10;84.50;;;;;;5040193;28;20028;-65
2022/02/20 09:36:55;;;;;;;0.55;0.55;;;9.10;84.30;;;;;;5046968;28;20359;-65
2022/02/20 09:39:21;;;;;;;0.30;0.30;;;9.20;84.70;;;;;;5035029;28;20415;-65
2022/02/20 09:41:46;;;;;;;0.20;0.20;;;9.30;84.40;;;;;;5027290;28;20458;-66
2022/02/20 09:44:12;;;;;;;0.30;0.30;;;9.10;84.70;;;;;;5040983;28;20051;-67
2022/02/20 09:46:42;;;;;;;0.52;0.52;;;9.20;85.40;;;;;;5042722;28;20308;-68
2022/02/20 09:49:08;;;;;;;1.48;0.60;;;9.20;84.70;;;;;;5045797;28;20095;-67
2022/02/20 09:51:35;;;;;;;0.30;0.30;;;9.20;84.60;;;;;;5034249;28;20029;-66
2022/02/20 09:54:01;;;;;;;2.33;0.95;;;9.20;85.10;;;;;;5030447;28;20414;-65
2022/02/20 09:56:27;;;;;;;0.40;0.40;;;9.10;85.00;;;;;;5033950;28;20029;-65
2022/02/20 09:58:55;;;;;;;0.35;0.35;;;9.10;85.50;;;;;;5047710;28;20025;-65
2022/02/20 10:01:21;;;;;;;1.20;0.57;;;9.20;86.10;;;;;;5042506;28;20037;-64
2022/02/20 10:03:48;;;;;;;0.47;0.47;;;9.30;85.80;;;;;;5041867;28;20031;-64
2022/02/20 10:06:19;;;;;;;0.32;0.32;;;9.40;85.20;;;;;;5039712;28;20147;-65
2022/02/20 10:08:50;;;;;;;0.40;0.40;;;9.60;85.10;;;;;;5041916;28;20033;-64
2022/02/20 10:11:24;;;;;;;3.08;0.77;;;9.60;84.70;;;;;;5031798;28;20565;-64
2022/02/20 10:14:11;;;;;;;0.20;0.20;;;9.60;85.20;;;;;;5049538;28;20050;-64
2022/02/20 10:16:36;;;;;;;0.20;0.20;;;9.60;84.80;;;;;;5040979;28;20033;-64
2022/02/20 10:19:03;;;;;;;1.45;0.40;;;9.60;84.50;;;;;;5037369;28;20163;-65
2022/02/20 10:21:33;;;;;;;4.78;0.50;;;9.60;84.10;;;;;;5028879;28;20026;-61
2022/02/20 10:24:13;;;;;;;4.97;1.48;;;9.50;84.10;;;;;;5026201;28;20033;-57
2022/02/20 10:26:48;;;;;;;5.20;0.93;;;9.50;84.60;;;;;;5035218;28;20041;-57
2022/02/20 10:29:18;;;;;;;2.15;1.05;;;9.70;85.10;;;;;;5038919;28;20025;-57
2022/02/20 10:31:53;;;;;;;1.40;0.85;;;10.00;85.00;;;;;;5035083;28;20048;-57
2022/02/20 10:34:24;;;;;;;0.30;0.30;;;10.10;85.10;;;;;;5041226;28;20464;-57
2022/02/20 10:36:55;;;;;;;3.03;1.35;;;10.30;84.50;;;;;;5040939;28;20448;-57
2022/02/20 10:39:34;;;;;;;1.08;0.98;;;10.50;85.10;;;;;;5037583;28;20032;-57
2022/02/20 10:42:13;;;;;;;0.50;0.50;;;10.60;85.30;;;;;;5034929;28;20021;-57
2022/02/20 10:44:52;;;;;;;0.35;0.35;;;10.70;85.10;;;;;;5037343;28;20034;-57
2022/02/20 10:47:18;;;;;;;0.35;0.35;;;10.70;84.60;;;;;;5041140;28;20029;-57
2022/02/20 10:49:44;;;;;;;1.05;0.95;;;10.70;84.70;;;;;;5043451;28;20367;-57
2022/02/20 10:52:25;;;;;;;2.55;0.47;;;10.80;85.00;;;;;;5038942;28;20025;-57
2022/02/20 10:55:19;;;;;;;0.40;0.40;;;10.80;84.30;;;;;;5033504;28;20037;-57
2022/02/20 10:57:45;;;;;;;1.27;0.70;;;10.80;84.40;;;;;;4998557;28;20085;-56
2022/02/20 11:00:13;;;;;;;3.22;1.13;;;10.80;84.60;;;;;;4999538;28;20061;-57
2022/02/20 11:02:40;;;;;;;7.20;0.50;;;10.80;84.30;;;;;;4980433;28;20120;-57
2022/02/20 11:05:06;;;;;;;0.30;0.30;;;10.70;84.90;;;;;;4993336;28;20512;-57
2022/02/20 11:07:37;;;;;;;1.40;0.68;;;10.80;84.40;;;;;;4998577;28;20093;-57
2022/02/20 11:10:04;;;;;;;4.43;0.70;;;10.80;85.60;;;;;;5000732;28;20120;-61
2022/02/20 11:12:31;;;;;;;5.95;0.75;;;10.90;85.20;;;;;;4973688;28;20580;-70
2022/02/20 11:14:59;;;;;;;0.38;0.38;;;10.80;82.70;;;;;;4979520;28;20230;-70
2022/02/20 11:17:27;;;;;;;0.40;0.40;;;10.50;82.10;;;;;;4978657;28;20519;-71
2022/02/20 11:19:55;;;;;;;1.17;0.50;;;10.50;82.50;;;;;;4975179;28;20023;-70
2022/02/20 11:22:21;;;;;;;0.28;0.28;;;10.50;82.60;;;;;;4997269;28;20488;-69
2022/02/20 11:24:50;;;;;;;8.48;1.05;;;10.50;82.30;;;;;;4974039;28;20058;-70
2022/02/20 11:27:18;;;;;;;0.30;0.30;;;10.40;82.40;;;;;;4971923;28;20038;-69
2022/02/20 11:29:44;;;;;;;0.20;0.20;;;10.50;82.20;;;;;;4990307;28;20118;-69
2022/02/20 11:32:11;;;;;;;1.58;0.57;;;10.60;81.70;;;;;;4989430;28;20030;-70
2022/02/20 11:34:42;;;;;;;0.50;0.50;;;10.60;82.40;;;;;;5025687;28;20033;-69
2022/02/20 11:37:09;;;;;;;0.30;0.30;;;10.70;81.70;;;;;;5014573;28;20112;-69
2022/02/20 11:39:35;;;;;;;0.30;0.30;;;10.70;81.10;;;;;;5033081;28;20025;-72
2022/02/20 11:42:15;;;;;;;0.30;0.30;;;10.70;80.80;;;;;;5028459;28;20120;-72
2022/02/20 11:45:10;;;;;;;0.30;0.30;;;10.60;81.20;;;;;;5030459;28;20030;-70
2022/02/20 11:47:44;;;;;;;0.60;0.60;;;10.50;80.70;;;;;;5028605;28;20037;-70
2022/02/20 11:50:16;;;;;;;0.30;0.30;;;10.50;80.90;;;;;;5023288;28;20099;-70
2022/02/20 11:52:56;;;;;;;0.77;0.77;;;10.60;80.70;;;;;;5015692;28;20044;-67
2022/02/20 11:55:26;;;;;;;0.25;0.25;;;10.50;80.50;;;;;;5012619;28;20280;-58
2022/02/20 11:58:21;;;;;;;0.20;0.20;;;10.60;80.40;;;;;;5025373;28;20133;-59
2022/02/20 12:00:58;;;;;;;3.10;0.55;;;10.70;80.40;;;;;;5030901;28;20110;-59
2022/02/20 12:03:26;;;;;;;0.30;0.30;;;10.90;80.80;;;;;;5029631;28;20107;-58
2022/02/20 12:06:10;;;;;;;0.80;0.50;;;10.80;79.80;;;;;;5014058;28;20030;-58
2022/02/20 12:08:41;;;;;;;0.85;0.85;;;10.90;80.10;;;;;;5030758;28;20071;-60
2022/02/20 12:11:23;;;;;;;0.30;0.30;;;10.80;79.80;;;;;;5034766;28;20028;-59
2022/02/20 12:13:53;;;;;;;16.45;4.88;;;10.90;80.40;;;;;;5039391;28;20357;-61
2022/02/20 12:16:30;;;;;;;2.50;0.52;;;11.00;81.10;;;;;;5036415;28;20021;-61
2022/02/20 12:19:21;;;;;;;0.20;0.20;;;11.00;80.30;;;;;;5022616;28;20107;-61
2022/02/20 12:22:24;;;;;;;0.20;0.20;;;10.90;80.20;;;;;;5036404;28;20036;-61
2022/02/20 12:25:01;;;;;;;0.25;0.25;;;10.90;80.30;;;;;;5039753;28;20022;-61
2022/02/20 12:27:36;;;;;;;0.20;0.20;;;11.00;79.70;;;;;;5036653;28;20022;-62
2022/02/20 12:30:11;;;;;;;0.30;0.30;;;10.90;79.80;;;;;;5039683;28;20040;-61
2022/02/20 12:32:40;;;;;;;11.38;0.93;;;11.00;80.10;;;;;;5041879;28;20060;-61
2022/02/20 12:35:14;;;;;;;1.08;0.68;;;11.00;79.70;;;;;;5046022;28;20041;-62
2022/02/20 12:37:50;;;;;;;0.20;0.20;;;11.00;79.60;;;;;;5036258;28;20104;-62
2022/02/20 12:40:19;;;;;;;0.70;0.25;;;11.10;79.50;;;;;;5042496;28;20034;-63
2022/02/20 12:42:57;;;;;;;0.45;0.40;;;11.00;79.60;;;;;;5037498;28;20113;-63
2022/02/20 12:45:30;;;;;;;0.30;0.30;;;11.10;80.80;;;;;;5041078;28;20378;-63
2022/02/20 12:48:00;;;;;;;0.75;0.30;;;11.20;79.80;;;;;;5039961;28;20032;-62
2022/02/20 12:50:28;;;;;;;0.20;0.20;;;11.30;79.10;;;;;;5044530;28;20434;-63